Flugplatz Marl-Loemühle

Für EDLM sind keine METAR/TAF Berichte vorhanden.
Es werden die Flugwettermeldungen vom Flugplatz Dortmund in 34 km Entfernung angezeigt.

Bericht für EDLW

vom 25.01. um 22:20 UTC

Wind 4 kt aus 210°

Sichtweite 4300 m

aufgebrochene Bewölkung in 200 ft

Temperatur 2.0°C

Taupunkt 2.0°C

Luftfeuchtigkeit 100%

Luftdruck 1019 hPa

EDLW 252220Z AUTO 21004KT 180V240 4300 // BKN002/// 02/02 Q1019

Prognose für EDLW

vom 25.01. um 00:00 UTC

Am 25.01. zwischen 00:00 UTC und 00:00 UTC

variable Windrichtung mit 2 kt

Sichtweite 8000 m

bedeckt in 400 ft


Am 25.01. zwischen 00:00 und 00:00 UTC übergehend zu

Wind 7 kt aus 180°

Sichtweite 8000 m

aufgebrochene Bewölkung in 1300 ft


Zwischen 00:00 und 00:00 UTC übergehend zu

Wind 7 kt aus 180°

Sichtweite 8000 m

aufgelockert bewölkt in 3500 ft

TAF EDLW 251700Z 2518/2618 VRB02KT 8000 OVC004 BECMG 2518/2521 18007KT BKN013 BECMG 2606/2609 SCT035
Impressum